PWSweather.com
Personal Weather Stations
Station Observations
WD4JKH
Forsyth, GA 31029

Forsyth, GA 31029

Lat: 33.033225, Lon: -83.927995

Elevation: 709

Station Type: Davis Vantage VUE

Latest ConditionsUpdated 7:10:18 PM EDT Wednesday, Oct 16, 2019
Currently Today's Max Today's Min Today's Average
Temperature 64.6°F18.1°C 76.7°F24.8°C 64.6°F18.1°C 69.3°F20.7°C
Dew Point 49.6°F9.8°C 68.7°F20.4°C 49.4°F9.7°C 64.3°F17.9°C
Winds 3.2 mph WNW5.1 kmh WNW 8.9 mph -14.3 kmh - - 3.3 mph 5.3 kmh
Wind Gusts 14.0 mph22.5 kmh 20.0 mph32.2 kmh - -
Humidity 58% 98% 55% 85%
Pressure 29.86 in1011.2 mb 29.91 in1012.9 mb 29.76 in1007.8 mb -
Precipitation - 0.22 in5.6 mm - -
Hour Temp Dew Point Humidity Winds Wind Gusts Pressure Precip Precip Rate Daily Precip Total
07:10 PM 64.6°F18.1°C 49.6°F9.8°C 58% 3.2 mph WNW5.1 kmh WNW 14.0 mph22.5 kmh 29.86 in1011.2 mb 0.00 in0.0 mm 0.00 in0.0 mm 0.22 in5.6 mm
07:05 PM 65.0°F18.3°C 49.5°F9.7°C 57% 3.6 mph WNW5.8 kmh WNW 14.0 mph22.5 kmh 29.86 in1011.2 mb 0.00 in0.0 mm 0.00 in0.0 mm 0.22 in5.6 mm
07:00 PM 65.4°F18.6°C 49.4°F9.7°C 56% 6.6 mph WNW10.6 kmh WNW 13.0 mph20.9 kmh 29.86 in1011.2 mb 0.00 in0.0 mm 0.00 in0.0 mm 0.22 in5.6 mm
06:55 PM 65.8°F18.8°C 49.8°F9.9°C 56% 4.8 mph WNW7.7 kmh WNW 15.0 mph24.1 kmh 29.86 in1011.2 mb 0.00 in0.0 mm 0.00 in0.0 mm 0.22 in5.6 mm
06:50 PM 66.2°F19.0°C 49.7°F9.8°C 55% 6.0 mph NW9.7 kmh NW 15.0 mph24.1 kmh 29.85 in1010.8 mb 0.00 in0.0 mm 0.00 in0.0 mm 0.22 in5.6 mm
06:45 PM 66.5°F19.2°C 49.9°F9.9°C 55% 3.5 mph NW5.6 kmh NW 19.0 mph30.6 kmh 29.85 in1010.8 mb 0.00 in0.0 mm 0.00 in0.0 mm 0.22 in5.6 mm
06:40 PM 66.9°F19.4°C 50.8°F10.4°C 56% 5.7 mph WNW9.2 kmh WNW 19.0 mph30.6 kmh 29.85 in1010.8 mb 0.00 in0.0 mm 0.00 in0.0 mm 0.22 in5.6 mm
06:35 PM 67.3°F19.6°C 51.7°F10.9°C 57% 3.1 mph WNW5.0 kmh WNW 19.0 mph30.6 kmh 29.85 in1010.8 mb 0.00 in0.0 mm 0.00 in0.0 mm 0.22 in5.6 mm
06:30 PM 67.7°F19.8°C 52.5°F11.4°C 58% 4.0 mph NW6.4 kmh NW 19.0 mph30.6 kmh 29.85 in1010.8 mb 0.00 in0.0 mm 0.00 in0.0 mm 0.22 in5.6 mm
06:25 PM 68.2°F20.1°C 53.0°F11.7°C 58% 5.2 mph NW8.4 kmh NW 13.0 mph20.9 kmh 29.84 in1010.5 mb 0.00 in0.0 mm 0.00 in0.0 mm 0.22 in5.6 mm
06:20 PM 68.8°F20.4°C 54.5°F12.5°C 60% 4.1 mph NNW6.6 kmh NNW 18.0 mph29.0 kmh 29.84 in1010.5 mb 0.00 in0.0 mm 0.00 in0.0 mm 0.22 in5.6 mm
06:16 PM 69.3°F20.7°C 54.5°F12.5°C 59% 5.4 mph NW8.7 kmh NW 18.0 mph29.0 kmh 29.84 in1010.5 mb 0.00 in0.0 mm 0.00 in0.0 mm 0.22 in5.6 mm
06:11 PM 69.6°F20.9°C 57.9°F14.4°C 66% 4.9 mph NW7.9 kmh NW 18.0 mph29.0 kmh 29.84 in1010.5 mb 0.00 in0.0 mm 0.00 in0.0 mm 0.22 in5.6 mm
06:06 PM 69.8°F21.0°C 57.5°F14.2°C 65% 4.4 mph WNW7.1 kmh WNW 18.0 mph29.0 kmh 29.83 in1010.2 mb 0.00 in0.0 mm 0.00 in0.0 mm 0.22 in5.6 mm
06:01 PM 70.0°F21.1°C 57.7°F14.3°C 65% 5.1 mph NW8.2 kmh NW 12.0 mph19.3 kmh 29.83 in1010.2 mb 0.00 in0.0 mm 0.00 in0.0 mm 0.22 in5.6 mm
05:56 PM 70.3°F21.3°C 58.0°F14.4°C 65% 3.8 mph NW6.1 kmh NW 12.0 mph19.3 kmh 29.83 in1010.2 mb 0.00 in0.0 mm 0.00 in0.0 mm 0.22 in5.6 mm
05:51 PM 70.5°F21.4°C 57.7°F14.3°C 64% 4.0 mph NW6.4 kmh NW 13.0 mph20.9 kmh 29.83 in1010.2 mb 0.00 in0.0 mm 0.00 in0.0 mm 0.22 in5.6 mm
05:46 PM 70.8°F21.6°C 58.0°F14.4°C 64% 4.1 mph NW6.6 kmh NW 16.0 mph25.7 kmh 29.83 in1010.2 mb 0.00 in0.0 mm 0.00 in0.0 mm 0.22 in5.6 mm
05:41 PM 71.1°F21.7°C 58.3°F14.6°C 64% 3.9 mph NW6.3 kmh NW 16.0 mph25.7 kmh 29.83 in1010.2 mb 0.00 in0.0 mm 0.00 in0.0 mm 0.22 in5.6 mm
05:36 PM 71.3°F21.8°C 58.7°F14.8°C 64% 6.6 mph WNW10.6 kmh WNW 16.0 mph25.7 kmh 29.83 in1010.2 mb 0.00 in0.0 mm 0.00 in0.0 mm 0.22 in5.6 mm
05:31 PM 71.6°F22.0°C 59.4°F15.2°C 65% 4.5 mph NW7.2 kmh NW 16.0 mph25.7 kmh 29.83 in1010.2 mb 0.00 in0.0 mm 0.00 in0.0 mm 0.22 in5.6 mm
05:26 PM 71.8°F22.1°C 59.6°F15.3°C 65% 6.5 mph NW10.5 kmh NW 14.0 mph22.5 kmh 29.83 in1010.2 mb 0.00 in0.0 mm 0.00 in0.0 mm 0.22 in5.6 mm
05:21 PM 72.1°F22.3°C 60.3°F15.7°C 66% 5.7 mph WNW9.2 kmh WNW 14.0 mph22.5 kmh 29.83 in1010.2 mb 0.00 in0.0 mm 0.00 in0.0 mm 0.22 in5.6 mm
05:16 PM 72.3°F22.4°C 60.5°F15.8°C 66% 4.1 mph WNW6.6 kmh WNW 15.0 mph24.1 kmh 29.83 in1010.2 mb 0.00 in0.0 mm 0.00 in0.0 mm 0.22 in5.6 mm
05:11 PM 72.6°F22.6°C 61.2°F16.2°C 67% 3.5 mph WNW5.6 kmh WNW 15.0 mph24.1 kmh 29.83 in1010.2 mb 0.00 in0.0 mm 0.00 in0.0 mm 0.22 in5.6 mm
05:06 PM 72.8°F22.7°C 61.8°F16.6°C 68% 4.6 mph WNW7.4 kmh WNW 15.0 mph24.1 kmh 29.82 in1009.8 mb 0.00 in0.0 mm 0.00 in0.0 mm 0.22 in5.6 mm
05:01 PM 72.9°F22.7°C 61.9°F16.6°C 68% 7.4 mph NW11.9 kmh NW 15.0 mph24.1 kmh 29.82 in1009.8 mb 0.00 in0.0 mm 0.00 in0.0 mm 0.22 in5.6 mm
04:56 PM 73.2°F22.9°C 62.6°F17.0°C 69% 5.6 mph NW9.0 kmh NW 15.0 mph24.1 kmh 29.82 in1009.8 mb 0.00 in0.0 mm 0.00 in0.0 mm 0.22 in5.6 mm
04:51 PM 73.3°F22.9°C 62.3°F16.8°C 68% 4.4 mph WNW7.1 kmh WNW 15.0 mph24.1 kmh 29.82 in1009.8 mb 0.00 in0.0 mm 0.00 in0.0 mm 0.22 in5.6 mm
04:46 PM 73.6°F23.1°C 62.6°F17.0°C 68% 6.3 mph NW10.1 kmh NW 15.0 mph24.1 kmh 29.82 in1009.8 mb 0.00 in0.0 mm 0.00 in0.0 mm 0.22 in5.6 mm
04:41 PM 74.0°F23.3°C 63.0°F17.2°C 68% 6.0 mph WNW9.7 kmh WNW 16.0 mph25.7 kmh 29.81 in1009.5 mb 0.00 in0.0 mm 0.00 in0.0 mm 0.22 in5.6 mm
04:36 PM 74.2°F23.4°C 62.1°F16.7°C 66% 3.9 mph W6.3 kmh W 16.0 mph25.7 kmh 29.81 in1009.5 mb 0.00 in0.0 mm 0.00 in0.0 mm 0.22 in5.6 mm
04:31 PM 74.2°F23.4°C 62.1°F16.7°C 66% 6.3 mph WNW10.1 kmh WNW 16.0 mph25.7 kmh 29.82 in1009.8 mb 0.00 in0.0 mm 0.00 in0.0 mm 0.22 in5.6 mm
04:26 PM 74.5°F23.6°C 62.6°F17.0°C 66% 8.3 mph WNW13.4 kmh WNW 16.0 mph25.7 kmh 29.82 in1009.8 mb 0.00 in0.0 mm 0.00 in0.0 mm 0.22 in5.6 mm
04:21 PM 74.8°F23.8°C 63.3°F17.4°C 67% 3.7 mph WNW6.0 kmh WNW 12.0 mph19.3 kmh 29.82 in1009.8 mb 0.00 in0.0 mm 0.00 in0.0 mm 0.22 in5.6 mm
04:16 PM 74.6°F23.7°C 63.5°F17.5°C 68% 6.8 mph WNW10.9 kmh WNW 12.0 mph19.3 kmh 29.82 in1009.8 mb 0.00 in0.0 mm 0.00 in0.0 mm 0.22 in5.6 mm
04:11 PM 74.5°F23.6°C 63.5°F17.5°C 68% 2.9 mph WNW4.7 kmh WNW 13.0 mph20.9 kmh 29.82 in1009.8 mb 0.00 in0.0 mm 0.00 in0.0 mm 0.22 in5.6 mm
04:06 PM 74.5°F23.6°C 63.0°F17.2°C 67% 4.6 mph W7.4 kmh W 13.0 mph20.9 kmh 29.82 in1009.8 mb 0.00 in0.0 mm 0.00 in0.0 mm 0.22 in5.6 mm
04:01 PM 74.3°F23.5°C 63.7°F17.6°C 69% 4.6 mph W7.4 kmh W 13.0 mph20.9 kmh 29.82 in1009.8 mb 0.00 in0.0 mm 0.00 in0.0 mm 0.22 in5.6 mm
03:56 PM 74.3°F23.5°C 64.3°F17.9°C 71% 4.1 mph WNW6.6 kmh WNW 14.0 mph22.5 kmh 29.82 in1009.8 mb 0.00 in0.0 mm 0.00 in0.0 mm 0.22 in5.6 mm
03:51 PM 74.2°F23.4°C 64.4°F18.0°C 71% 5.8 mph WNW9.3 kmh WNW 14.0 mph22.5 kmh 29.82 in1009.8 mb 0.00 in0.0 mm 0.00 in0.0 mm 0.22 in5.6 mm
03:46 PM 74.3°F23.5°C 64.5°F18.1°C 71% 5.4 mph WNW8.7 kmh WNW 14.0 mph22.5 kmh 29.82 in1009.8 mb 0.00 in0.0 mm 0.00 in0.0 mm 0.22 in5.6 mm
03:41 PM 74.4°F23.6°C 64.6°F18.1°C 71% 5.7 mph NW9.2 kmh NW 14.0 mph22.5 kmh 29.82 in1009.8 mb 0.00 in0.0 mm 0.00 in0.0 mm 0.22 in5.6 mm
03:36 PM 74.4°F23.6°C 64.2°F17.9°C 70% 6.2 mph NW10.0 kmh NW 12.0 mph19.3 kmh 29.82 in1009.8 mb 0.00 in0.0 mm 0.00 in0.0 mm 0.22 in5.6 mm
03:31 PM 74.7°F23.7°C 64.5°F18.1°C 70% 6.0 mph WNW9.7 kmh WNW 12.0 mph19.3 kmh 29.82 in1009.8 mb 0.00 in0.0 mm 0.00 in0.0 mm 0.22 in5.6 mm
03:26 PM 75.0°F23.9°C 65.4°F18.6°C 72% 3.6 mph NW5.8 kmh NW 14.0 mph22.5 kmh 29.82 in1009.8 mb 0.00 in0.0 mm 0.00 in0.0 mm 0.22 in5.6 mm
03:21 PM 75.5°F24.2°C 65.0°F18.3°C 70% 4.6 mph WNW7.4 kmh WNW 15.0 mph24.1 kmh 29.82 in1009.8 mb 0.00 in0.0 mm 0.00 in0.0 mm 0.22 in5.6 mm
03:16 PM 75.9°F24.4°C 65.6°F18.7°C 70% 4.3 mph NW6.9 kmh NW 15.0 mph24.1 kmh 29.81 in1009.5 mb 0.00 in0.0 mm 0.00 in0.0 mm 0.22 in5.6 mm
03:11 PM 76.2°F24.6°C 64.2°F17.9°C 66% 5.2 mph W8.4 kmh W 15.0 mph24.1 kmh 29.81 in1009.5 mb 0.00 in0.0 mm 0.00 in0.0 mm 0.22 in5.6 mm
03:06 PM 76.7°F24.8°C 64.5°F18.1°C 66% 5.1 mph NW8.2 kmh NW 16.0 mph25.7 kmh 29.81 in1009.5 mb 0.00 in0.0 mm 0.00 in0.0 mm 0.22 in5.6 mm
03:01 PM 76.6°F24.8°C 64.6°F18.1°C 66% 5.3 mph W8.5 kmh W 20.0 mph32.2 kmh 29.82 in1009.8 mb 0.00 in0.0 mm 0.00 in0.0 mm 0.22 in5.6 mm
02:56 PM 76.0°F24.4°C 64.9°F18.3°C 68% 3.9 mph WNW6.3 kmh WNW 20.0 mph32.2 kmh 29.82 in1009.8 mb 0.00 in0.0 mm 0.00 in0.0 mm 0.22 in5.6 mm
02:51 PM 75.7°F24.3°C 63.5°F17.5°C 66% 8.4 mph WNW13.5 kmh WNW 20.0 mph32.2 kmh 29.81 in1009.5 mb 0.00 in0.0 mm 0.00 in0.0 mm 0.22 in5.6 mm
02:46 PM 75.4°F24.1°C 63.9°F17.7°C 67% 8.5 mph WNW13.7 kmh WNW 20.0 mph32.2 kmh 29.82 in1009.8 mb 0.00 in0.0 mm 0.00 in0.0 mm 0.22 in5.6 mm
02:41 PM 75.5°F24.2°C 63.8°F17.7°C 67% 7.1 mph NW11.4 kmh NW 14.0 mph22.5 kmh 29.81 in1009.5 mb 0.00 in0.0 mm 0.00 in0.0 mm 0.22 in5.6 mm
02:36 PM 75.5°F24.2°C 64.0°F17.8°C 67% 7.2 mph W11.6 kmh W 15.0 mph24.1 kmh 29.82 in1009.8 mb 0.00 in0.0 mm 0.00 in0.0 mm 0.22 in5.6 mm
02:31 PM 75.6°F24.2°C 63.9°F17.7°C 67% 7.9 mph W12.7 kmh W 19.0 mph30.6 kmh 29.81 in1009.5 mb 0.00 in0.0 mm 0.00 in0.0 mm 0.22 in5.6 mm
02:26 PM 75.7°F24.3°C 64.2°F17.9°C 67% 7.2 mph W11.6 kmh W 19.0 mph30.6 kmh 29.81 in1009.5 mb 0.00 in0.0 mm 0.00 in0.0 mm 0.22 in5.6 mm
02:21 PM 75.3°F24.1°C 64.2°F17.9°C 68% 6.2 mph NW10.0 kmh NW 19.0 mph30.6 kmh 29.81 in1009.5 mb 0.00 in0.0 mm 0.00 in0.0 mm 0.22 in5.6 mm
02:16 PM 75.2°F24.0°C 64.9°F18.3°C 70% 2.7 mph WNW4.3 kmh WNW 19.0 mph30.6 kmh 29.81 in1009.5 mb 0.00 in0.0 mm 0.00 in0.0 mm 0.22 in5.6 mm
02:11 PM 75.4°F24.1°C 65.1°F18.4°C 70% 5.1 mph W8.2 kmh W 19.0 mph30.6 kmh 29.81 in1009.5 mb 0.00 in0.0 mm 0.00 in0.0 mm 0.22 in5.6 mm
02:06 PM 74.9°F23.8°C 64.5°F18.1°C 70% 8.9 mph W14.3 kmh W 19.0 mph30.6 kmh 29.82 in1009.8 mb 0.00 in0.0 mm 0.00 in0.0 mm 0.22 in5.6 mm
02:01 PM 74.7°F23.7°C 65.3°F18.5°C 72% 3.8 mph WNW6.1 kmh WNW 19.0 mph30.6 kmh 29.82 in1009.8 mb 0.00 in0.0 mm 0.00 in0.0 mm 0.22 in5.6 mm
01:56 PM 74.6°F23.7°C 64.8°F18.2°C 71% 7.4 mph WNW11.9 kmh WNW 15.0 mph24.1 kmh 29.82 in1009.8 mb 0.00 in0.0 mm 0.00 in0.0 mm 0.22 in5.6 mm
01:51 PM 74.5°F23.6°C 65.1°F18.4°C 72% 6.8 mph WNW10.9 kmh WNW 15.0 mph24.1 kmh 29.82 in1009.8 mb 0.00 in0.0 mm 0.00 in0.0 mm 0.22 in5.6 mm
01:46 PM 74.7°F23.7°C 64.9°F18.3°C 71% 6.7 mph WNW10.8 kmh WNW 15.0 mph24.1 kmh 29.82 in1009.8 mb 0.00 in0.0 mm 0.00 in0.0 mm 0.22 in5.6 mm
01:41 PM 75.5°F24.2°C 65.0°F18.3°C 70% 4.1 mph WNW6.6 kmh WNW 15.0 mph24.1 kmh 29.82 in1009.8 mb 0.00 in0.0 mm 0.00 in0.0 mm 0.22 in5.6 mm
01:36 PM 75.5°F24.2°C 65.2°F18.4°C 70% 5.3 mph WNW8.5 kmh WNW 15.0 mph24.1 kmh 29.82 in1009.8 mb 0.00 in0.0 mm 0.00 in0.0 mm 0.22 in5.6 mm
01:31 PM 75.4°F24.1°C 65.5°F18.6°C 71% 5.1 mph NW8.2 kmh NW 15.0 mph24.1 kmh 29.82 in1009.8 mb 0.00 in0.0 mm 0.00 in0.0 mm 0.22 in5.6 mm
01:26 PM 75.0°F23.9°C 65.5°F18.6°C 72% 2.9 mph NW4.7 kmh NW 15.0 mph24.1 kmh 29.82 in1009.8 mb 0.00 in0.0 mm 0.00 in0.0 mm 0.22 in5.6 mm
01:21 PM 74.9°F23.8°C 65.1°F18.4°C 71% 4.6 mph NW7.4 kmh NW 15.0 mph24.1 kmh 29.82 in1009.8 mb 0.00 in0.0 mm 0.00 in0.0 mm 0.22 in5.6 mm
01:16 PM 74.9°F23.8°C 65.8°F18.8°C 73% 3.5 mph W5.6 kmh W 14.0 mph22.5 kmh 29.82 in1009.8 mb 0.00 in0.0 mm 0.00 in0.0 mm 0.22 in5.6 mm
01:11 PM 74.7°F23.7°C 66.0°F18.9°C 74% 2.9 mph NW4.7 kmh NW 14.0 mph22.5 kmh 29.83 in1010.2 mb 0.00 in0.0 mm 0.00 in0.0 mm 0.22 in5.6 mm
01:06 PM 74.5°F23.6°C 65.1°F18.4°C 72% 5.4 mph WNW8.7 kmh WNW 19.0 mph30.6 kmh 29.83 in1010.2 mb 0.00 in0.0 mm 0.00 in0.0 mm 0.22 in5.6 mm
01:01 PM 74.6°F23.7°C 65.5°F18.6°C 73% 4.5 mph WNW7.2 kmh WNW 19.0 mph30.6 kmh 29.84 in1010.5 mb 0.00 in0.0 mm 0.00 in0.0 mm 0.22 in5.6 mm
12:56 PM 74.5°F23.6°C 65.8°F18.8°C 74% 4.1 mph NW6.6 kmh NW 19.0 mph30.6 kmh 29.84 in1010.5 mb 0.00 in0.0 mm 0.00 in0.0 mm 0.22 in5.6 mm
12:51 PM 74.7°F23.7°C 65.6°F18.7°C 73% 6.8 mph NW10.9 kmh NW 19.0 mph30.6 kmh 29.84 in1010.5 mb 0.00 in0.0 mm 0.00 in0.0 mm 0.22 in5.6 mm
12:46 PM 75.1°F23.9°C 65.5°F18.6°C 72% 8.0 mph WNW12.9 kmh WNW 18.0 mph29.0 kmh 29.83 in1010.2 mb 0.00 in0.0 mm 0.00 in0.0 mm 0.22 in5.6 mm
12:41 PM 75.2°F24.0°C 65.9°F18.8°C 73% 4.1 mph WNW6.6 kmh WNW 14.0 mph22.5 kmh 29.84 in1010.5 mb 0.00 in0.0 mm 0.00 in0.0 mm 0.22 in5.6 mm
12:36 PM 75.2°F24.0°C 65.9°F18.8°C 73% 6.2 mph NW10.0 kmh NW 14.0 mph22.5 kmh 29.84 in1010.5 mb 0.00 in0.0 mm 0.00 in0.0 mm 0.22 in5.6 mm
12:31 PM 74.9°F23.8°C 66.6°F19.2°C 75% 4.1 mph WNW6.6 kmh WNW 17.0 mph27.4 kmh 29.83 in1010.2 mb 0.00 in0.0 mm 0.00 in0.0 mm 0.22 in5.6 mm
12:26 PM 74.6°F23.7°C 65.5°F18.6°C 73% 5.4 mph NW8.7 kmh NW 17.0 mph27.4 kmh 29.83 in1010.2 mb 0.00 in0.0 mm 0.00 in0.0 mm 0.22 in5.6 mm
12:20 PM 74.8°F23.8°C 66.1°F18.9°C 74% 4.9 mph WNW7.9 kmh WNW 17.0 mph27.4 kmh 29.82 in1009.8 mb 0.00 in0.0 mm 0.00 in0.0 mm 0.22 in5.6 mm
12:17 PM 74.9°F23.8°C 66.6°F19.2°C 75% 6.0 mph W9.7 kmh W 17.0 mph27.4 kmh 29.83 in1010.2 mb 0.00 in0.0 mm 0.00 in0.0 mm 0.22 in5.6 mm
12:12 PM 74.9°F23.8°C 66.6°F19.2°C 75% 5.8 mph WNW9.3 kmh WNW 16.0 mph25.7 kmh 29.83 in1010.2 mb 0.00 in0.0 mm 0.00 in0.0 mm 0.22 in5.6 mm
12:07 PM 74.6°F23.7°C 67.4°F19.7°C 78% 4.9 mph WNW7.9 kmh WNW 15.0 mph24.1 kmh 29.82 in1009.8 mb 0.00 in0.0 mm 0.00 in0.0 mm 0.22 in5.6 mm
12:02 PM 74.4°F23.6°C 66.9°F19.4°C 77% 7.6 mph WNW12.2 kmh WNW 15.0 mph24.1 kmh 29.82 in1009.8 mb 0.00 in0.0 mm 0.00 in0.0 mm 0.22 in5.6 mm
11:57 AM 74.1°F23.4°C 67.3°F19.6°C 79% 4.1 mph WNW6.6 kmh WNW 15.0 mph24.1 kmh 29.82 in1009.8 mb 0.00 in0.0 mm 0.00 in0.0 mm 0.22 in5.6 mm
11:52 AM 74.0°F23.3°C 66.8°F19.3°C 78% 6.2 mph NW10.0 kmh NW 14.0 mph22.5 kmh 29.82 in1009.8 mb 0.00 in0.0 mm 0.00 in0.0 mm 0.22 in5.6 mm
11:47 AM 73.9°F23.3°C 67.1°F19.5°C 79% 6.2 mph WNW10.0 kmh WNW 14.0 mph22.5 kmh 29.82 in1009.8 mb 0.00 in0.0 mm 0.00 in0.0 mm 0.22 in5.6 mm
11:42 AM 73.8°F23.2°C 67.7°F19.8°C 81% 3.0 mph WNW4.8 kmh WNW 14.0 mph22.5 kmh 29.82 in1009.8 mb 0.00 in0.0 mm 0.00 in0.0 mm 0.22 in5.6 mm
11:37 AM 73.5°F23.1°C 68.1°F20.1°C 83% 2.0 mph NW3.2 kmh NW 14.0 mph22.5 kmh 29.82 in1009.8 mb 0.00 in0.0 mm 0.00 in0.0 mm 0.22 in5.6 mm
11:32 AM 73.1°F22.8°C 67.7°F19.8°C 83% 3.8 mph WNW6.1 kmh WNW 14.0 mph22.5 kmh 29.82 in1009.8 mb 0.00 in0.0 mm 0.00 in0.0 mm 0.22 in5.6 mm
11:27 AM 73.0°F22.8°C 67.6°F19.8°C 83% 5.7 mph WNW9.2 kmh WNW 14.0 mph22.5 kmh 29.82 in1009.8 mb 0.00 in0.0 mm 0.00 in0.0 mm 0.22 in5.6 mm
11:22 AM 73.0°F22.8°C 67.9°F19.9°C 84% 5.6 mph WNW9.0 kmh WNW 14.0 mph22.5 kmh 29.82 in1009.8 mb 0.00 in0.0 mm 0.00 in0.0 mm 0.22 in5.6 mm
11:17 AM 72.8°F22.7°C 68.1°F20.1°C 85% 3.2 mph W5.1 kmh W 14.0 mph22.5 kmh 29.81 in1009.5 mb 0.00 in0.0 mm 0.00 in0.0 mm 0.22 in5.6 mm
11:12 AM 72.7°F22.6°C 68.0°F20.0°C 85% 5.9 mph NW9.5 kmh NW 13.0 mph20.9 kmh 29.81 in1009.5 mb 0.00 in0.0 mm 0.00 in0.0 mm 0.22 in5.6 mm
11:07 AM 72.5°F22.5°C 68.1°F20.1°C 86% 4.9 mph W7.9 kmh W 15.0 mph24.1 kmh 29.81 in1009.5 mb 0.00 in0.0 mm 0.00 in0.0 mm 0.22 in5.6 mm
11:02 AM 72.0°F22.2°C 67.9°F19.9°C 87% 3.4 mph W5.5 kmh W 15.0 mph24.1 kmh 29.80 in1009.1 mb 0.00 in0.0 mm 0.00 in0.0 mm 0.22 in5.6 mm
10:57 AM 71.7°F22.1°C 68.0°F20.0°C 88% 4.1 mph WNW6.6 kmh WNW 15.0 mph24.1 kmh 29.80 in1009.1 mb 0.00 in0.0 mm 0.00 in0.0 mm 0.22 in5.6 mm
10:52 AM 71.5°F21.9°C 68.1°F20.1°C 89% 5.9 mph WNW9.5 kmh WNW 15.0 mph24.1 kmh 29.81 in1009.5 mb 0.00 in0.0 mm 0.00 in0.0 mm 0.22 in5.6 mm
10:47 AM 71.5°F21.9°C 68.4°F20.2°C 90% 4.3 mph WNW6.9 kmh WNW 14.0 mph22.5 kmh 29.81 in1009.5 mb 0.00 in0.0 mm 0.00 in0.0 mm 0.22 in5.6 mm
10:42 AM 71.5°F21.9°C 68.4°F20.2°C 90% 4.4 mph W7.1 kmh W 10.0 mph16.1 kmh 29.81 in1009.5 mb 0.00 in0.0 mm 0.00 in0.0 mm 0.22 in5.6 mm
10:37 AM 71.5°F21.9°C 68.7°F20.4°C 91% 3.0 mph W4.8 kmh W 9.0 mph14.5 kmh 29.80 in1009.1 mb 0.00 in0.0 mm 0.00 in0.0 mm 0.22 in5.6 mm
10:32 AM 71.2°F21.8°C 68.4°F20.2°C 91% 3.0 mph W4.8 kmh W 12.0 mph19.3 kmh 29.80 in1009.1 mb 0.00 in0.0 mm 0.00 in0.0 mm 0.22 in5.6 mm
10:27 AM 70.9°F21.6°C 68.5°F20.3°C 92% 4.4 mph W7.1 kmh W 12.0 mph19.3 kmh 29.79 in1008.8 mb 0.00 in0.0 mm 0.00 in0.0 mm 0.22 in5.6 mm
10:22 AM 70.7°F21.5°C 68.3°F20.2°C 92% 3.6 mph WNW5.8 kmh WNW 12.0 mph19.3 kmh 29.80 in1009.1 mb 0.00 in0.0 mm 0.00 in0.0 mm 0.22 in5.6 mm
10:17 AM 70.5°F21.4°C 68.4°F20.2°C 93% 3.8 mph W6.1 kmh W 14.0 mph22.5 kmh 29.79 in1008.8 mb 0.00 in0.0 mm 0.00 in0.0 mm 0.22 in5.6 mm
10:12 AM 70.0°F21.1°C 68.2°F20.1°C 94% 2.8 mph W4.5 kmh W 14.0 mph22.5 kmh 29.79 in1008.8 mb 0.00 in0.0 mm 0.00 in0.0 mm 0.22 in5.6 mm
10:07 AM 69.7°F20.9°C 68.2°F20.1°C 95% 4.5 mph W7.2 kmh W 14.0 mph22.5 kmh 29.80 in1009.1 mb 0.00 in0.0 mm 0.00 in0.0 mm 0.22 in5.6 mm
10:02 AM 69.5°F20.8°C 68.0°F20.0°C 95% 2.9 mph WNW4.7 kmh WNW 14.0 mph22.5 kmh 29.80 in1009.1 mb 0.00 in0.0 mm 0.00 in0.0 mm 0.22 in5.6 mm
09:57 AM 69.5°F20.8°C 68.3°F20.2°C 96% 4.3 mph W6.9 kmh W 12.0 mph19.3 kmh 29.80 in1009.1 mb 0.00 in0.0 mm 0.00 in0.0 mm 0.22 in5.6 mm
09:52 AM 69.6°F20.9°C 68.7°F20.4°C 97% 2.5 mph W4.0 kmh W 16.0 mph25.7 kmh 29.80 in1009.1 mb 0.00 in0.0 mm 0.00 in0.0 mm 0.22 in5.6 mm
09:47 AM 69.3°F20.7°C 68.4°F20.2°C 97% 2.1 mph WNW3.4 kmh WNW 16.0 mph25.7 kmh 29.80 in1009.1 mb 0.00 in0.0 mm 0.00 in0.0 mm 0.22 in5.6 mm
09:42 AM 68.8°F20.4°C 67.9°F19.9°C 97% 4.0 mph W6.4 kmh W 16.0 mph25.7 kmh 29.79 in1008.8 mb 0.00 in0.0 mm 0.00 in0.0 mm 0.22 in5.6 mm
09:37 AM 68.6°F20.3°C 68.0°F20.0°C 98% 3.0 mph W4.8 kmh W 16.0 mph25.7 kmh 29.79 in1008.8 mb 0.00 in0.0 mm 0.00 in0.0 mm 0.22 in5.6 mm
09:31 AM 68.4°F20.2°C 67.8°F19.9°C 98% 4.8 mph W7.7 kmh W 11.0 mph17.7 kmh 29.79 in1008.8 mb 0.00 in0.0 mm 0.00 in0.0 mm 0.22 in5.6 mm
09:26 AM 68.3°F20.2°C 67.7°F19.8°C 98% 1.9 mph W3.1 kmh W 11.0 mph17.7 kmh 29.79 in1008.8 mb 0.00 in0.0 mm 0.00 in0.0 mm 0.22 in5.6 mm
09:22 AM 68.2°F20.1°C 67.6°F19.8°C 98% 4.0 mph W6.4 kmh W 11.0 mph17.7 kmh 29.79 in1008.8 mb 0.00 in0.0 mm 0.00 in0.0 mm 0.22 in5.6 mm
09:17 AM 68.1°F20.1°C 67.5°F19.7°C 98% 3.5 mph W5.6 kmh W 9.0 mph14.5 kmh 29.79 in1008.8 mb 0.00 in0.0 mm 0.00 in0.0 mm 0.22 in5.6 mm
09:12 AM 68.1°F20.1°C 67.5°F19.7°C 98% 3.3 mph W5.3 kmh W 9.0 mph14.5 kmh 29.78 in1008.5 mb 0.00 in0.0 mm 0.00 in0.0 mm 0.22 in5.6 mm
09:07 AM 68.0°F20.0°C 67.4°F19.7°C 98% 3.0 mph W4.8 kmh W 11.0 mph17.7 kmh 29.78 in1008.5 mb 0.00 in0.0 mm 0.00 in0.0 mm 0.22 in5.6 mm
09:02 AM 67.9°F19.9°C 67.3°F19.6°C 98% 3.5 mph W5.6 kmh W 11.0 mph17.7 kmh 29.78 in1008.5 mb 0.00 in0.0 mm 0.00 in0.0 mm 0.22 in5.6 mm
08:56 AM 67.7°F19.8°C 67.1°F19.5°C 98% 2.4 mph W3.9 kmh W 11.0 mph17.7 kmh 29.78 in1008.5 mb 0.00 in0.0 mm 0.00 in0.0 mm 0.22 in5.6 mm
08:52 AM 67.5°F19.7°C 66.9°F19.4°C 98% 4.3 mph W6.9 kmh W 11.0 mph17.7 kmh 29.79 in1008.8 mb 0.00 in0.0 mm 0.00 in0.0 mm 0.22 in5.6 mm
08:47 AM 67.3°F19.6°C 66.7°F19.3°C 98% 4.1 mph W6.6 kmh W 9.0 mph14.5 kmh 29.79 in1008.8 mb 0.00 in0.0 mm 0.00 in0.0 mm 0.22 in5.6 mm
08:41 AM 67.2°F19.6°C 66.6°F19.2°C 98% 3.1 mph W5.0 kmh W 6.0 mph9.7 kmh 29.79 in1008.8 mb 0.00 in0.0 mm 0.00 in0.0 mm 0.22 in5.6 mm
08:36 AM 67.1°F19.5°C 66.5°F19.2°C 98% 1.3 mph NW2.1 kmh NW 5.0 mph8.0 kmh 29.79 in1008.8 mb 0.00 in0.0 mm 0.00 in0.0 mm 0.22 in5.6 mm
08:31 AM 67.0°F19.4°C 66.4°F19.1°C 98% 1.0 mph W1.6 kmh W 3.0 mph4.8 kmh 29.78 in1008.5 mb 0.00 in0.0 mm 0.00 in0.0 mm 0.22 in5.6 mm
08:26 AM 66.9°F19.4°C 66.3°F19.1°C 98% 1.3 mph W2.1 kmh W 3.0 mph4.8 kmh 29.78 in1008.5 mb 0.01 in0.3 mm 0.00 in0.0 mm 0.22 in5.6 mm
08:21 AM 66.8°F19.3°C 66.2°F19.0°C 98% Calm Calm 4.0 mph6.4 kmh 29.78 in1008.5 mb 0.01 in0.3 mm 0.00 in0.0 mm 0.22 in5.6 mm
08:16 AM 66.8°F19.3°C 66.2°F19.0°C 98% 1.5 mph WSW2.4 kmh WSW 4.0 mph6.4 kmh 29.78 in1008.5 mb 0.01 in0.3 mm 0.00 in0.0 mm 0.22 in5.6 mm
08:11 AM 66.7°F19.3°C 66.1°F18.9°C 98% 1.5 mph SW2.4 kmh SW 4.0 mph6.4 kmh 29.78 in1008.5 mb 0.01 in0.3 mm 0.00 in0.0 mm 0.22 in5.6 mm
08:06 AM 66.7°F19.3°C 66.1°F18.9°C 98% 1.9 mph SW3.1 kmh SW 4.0 mph6.4 kmh 29.78 in1008.5 mb 0.01 in0.3 mm 0.00 in0.0 mm 0.22 in5.6 mm
08:01 AM 66.6°F19.2°C 66.0°F18.9°C 98% 1.5 mph WSW2.4 kmh WSW 3.0 mph4.8 kmh 29.79 in1008.8 mb 0.01 in0.3 mm 0.00 in0.0 mm 0.22 in5.6 mm
07:56 AM 66.6°F19.2°C 66.0°F18.9°C 98% 1.0 mph SW1.6 kmh SW 3.0 mph4.8 kmh 29.78 in1008.5 mb 0.01 in0.3 mm 0.00 in0.0 mm 0.22 in5.6 mm
07:51 AM 66.5°F19.2°C 65.9°F18.8°C 98% 1.1 mph SW1.8 kmh SW 4.0 mph6.4 kmh 29.78 in1008.5 mb 0.01 in0.3 mm 0.00 in0.0 mm 0.22 in5.6 mm
07:46 AM 66.5°F19.2°C 65.9°F18.8°C 98% Calm Calm 4.0 mph6.4 kmh 29.78 in1008.5 mb 0.01 in0.3 mm 0.00 in0.0 mm 0.22 in5.6 mm
07:41 AM 66.4°F19.1°C 65.8°F18.8°C 98% 1.6 mph WSW2.6 kmh WSW 5.0 mph8.0 kmh 29.78 in1008.5 mb 0.01 in0.3 mm 0.00 in0.0 mm 0.22 in5.6 mm
07:36 AM 66.3°F19.1°C 65.7°F18.7°C 98% 1.3 mph WSW2.1 kmh WSW 5.0 mph8.0 kmh 29.78 in1008.5 mb 0.01 in0.3 mm 0.00 in0.0 mm 0.22 in5.6 mm
07:31 AM 66.3°F19.1°C 65.7°F18.7°C 98% 1.7 mph SW2.7 kmh SW 5.0 mph8.0 kmh 29.78 in1008.5 mb 0.01 in0.3 mm 0.12 in3.0 mm 0.22 in5.6 mm
07:26 AM 66.2°F19.0°C 65.6°F18.7°C 98% 2.4 mph WNW3.9 kmh WNW 5.0 mph8.0 kmh 29.80 in1009.1 mb 0.00 in0.0 mm 0.00 in0.0 mm 0.21 in5.3 mm
07:21 AM 66.1°F18.9°C 65.5°F18.6°C 98% 2.6 mph SW4.2 kmh SW 5.0 mph8.0 kmh 29.79 in1008.8 mb 0.00 in0.0 mm 0.00 in0.0 mm 0.21 in5.3 mm
07:16 AM 66.1°F18.9°C 65.5°F18.6°C 98% 1.7 mph SW2.7 kmh SW 4.0 mph6.4 kmh 29.78 in1008.5 mb 0.00 in0.0 mm 0.00 in0.0 mm 0.21 in5.3 mm
07:11 AM 66.0°F18.9°C 65.4°F18.6°C 98% 1.7 mph SW2.7 kmh SW 3.0 mph4.8 kmh 29.78 in1008.5 mb 0.00 in0.0 mm 0.00 in0.0 mm 0.21 in5.3 mm
07:06 AM 65.9°F18.8°C 65.3°F18.5°C 98% 1.8 mph SW2.9 kmh SW 4.0 mph6.4 kmh 29.78 in1008.5 mb 0.00 in0.0 mm 0.00 in0.0 mm 0.21 in5.3 mm
07:01 AM 65.9°F18.8°C 65.3°F18.5°C 98% 1.5 mph SW2.4 kmh SW 4.0 mph6.4 kmh 29.78 in1008.5 mb 0.01 in0.3 mm 0.00 in0.0 mm 0.21 in5.3 mm
06:56 AM 65.8°F18.8°C 65.2°F18.4°C 98% 1.6 mph SW2.6 kmh SW 4.0 mph6.4 kmh 29.78 in1008.5 mb 0.01 in0.3 mm 0.00 in0.0 mm 0.21 in5.3 mm
06:51 AM 65.8°F18.8°C 65.2°F18.4°C 98% 1.7 mph WSW2.7 kmh WSW 4.0 mph6.4 kmh 29.78 in1008.5 mb 0.01 in0.3 mm 0.00 in0.0 mm 0.21 in5.3 mm
06:46 AM 65.7°F18.7°C 65.1°F18.4°C 98% 1.0 mph SW1.6 kmh SW 4.0 mph6.4 kmh 29.78 in1008.5 mb 0.01 in0.3 mm 0.00 in0.0 mm 0.21 in5.3 mm
06:41 AM 65.6°F18.7°C 65.0°F18.3°C 98% 1.9 mph SW3.1 kmh SW 4.0 mph6.4 kmh 29.78 in1008.5 mb 0.01 in0.3 mm 0.00 in0.0 mm 0.21 in5.3 mm
06:36 AM 65.6°F18.7°C 65.0°F18.3°C 98% 2.3 mph SW3.7 kmh SW 4.0 mph6.4 kmh 29.78 in1008.5 mb 0.01 in0.3 mm 0.00 in0.0 mm 0.21 in5.3 mm
06:31 AM 65.5°F18.6°C 64.9°F18.3°C 98% 1.2 mph SW1.9 kmh SW 4.0 mph6.4 kmh 29.78 in1008.5 mb 0.01 in0.3 mm 0.00 in0.0 mm 0.21 in5.3 mm
06:26 AM 65.5°F18.6°C 64.9°F18.3°C 98% 1.1 mph SW1.8 kmh SW 5.0 mph8.0 kmh 29.78 in1008.5 mb 0.01 in0.3 mm 0.00 in0.0 mm 0.21 in5.3 mm
06:21 AM 65.5°F18.6°C 64.9°F18.3°C 98% 1.0 mph WSW1.6 kmh WSW 5.0 mph8.0 kmh 29.79 in1008.8 mb 0.01 in0.3 mm 0.00 in0.0 mm 0.21 in5.3 mm
06:17 AM 65.5°F18.6°C 64.9°F18.3°C 98% 1.0 mph SW1.6 kmh SW 5.0 mph8.0 kmh 29.79 in1008.8 mb 0.01 in0.3 mm 0.00 in0.0 mm 0.21 in5.3 mm
06:12 AM 65.4°F18.6°C 64.8°F18.2°C 98% 1.9 mph SW3.1 kmh SW 5.0 mph8.0 kmh 29.79 in1008.8 mb 0.01 in0.3 mm 0.00 in0.0 mm 0.21 in5.3 mm
06:07 AM 65.4°F18.6°C 64.8°F18.2°C 98% 1.1 mph SW1.8 kmh SW 5.0 mph8.0 kmh 29.80 in1009.1 mb 0.01 in0.3 mm 0.12 in3.0 mm 0.21 in5.3 mm
06:02 AM 65.4°F18.6°C 64.8°F18.2°C 98% 2.1 mph SW3.4 kmh SW 5.0 mph8.0 kmh 29.79 in1008.8 mb 0.00 in0.0 mm 0.00 in0.0 mm 0.20 in5.1 mm
05:57 AM 65.4°F18.6°C 64.8°F18.2°C 98% Calm Calm 4.0 mph6.4 kmh 29.79 in1008.8 mb 0.00 in0.0 mm 0.00 in0.0 mm 0.20 in5.1 mm
05:52 AM 65.4°F18.6°C 64.8°F18.2°C 98% 1.6 mph SW2.6 kmh SW 4.0 mph6.4 kmh 29.79 in1008.8 mb 0.00 in0.0 mm 0.00 in0.0 mm 0.20 in5.1 mm
05:47 AM 65.3°F18.5°C 64.7°F18.2°C 98% 1.5 mph SW2.4 kmh SW 4.0 mph6.4 kmh 29.79 in1008.8 mb 0.00 in0.0 mm 0.00 in0.0 mm 0.20 in5.1 mm
05:42 AM 65.3°F18.5°C 64.7°F18.2°C 98% 1.9 mph SW3.1 kmh SW 4.0 mph6.4 kmh 29.80 in1009.1 mb 0.00 in0.0 mm 0.00 in0.0 mm 0.20 in5.1 mm
05:37 AM 65.3°F18.5°C 64.7°F18.2°C 98% 1.0 mph WSW1.6 kmh WSW 4.0 mph6.4 kmh 29.79 in1008.8 mb 0.00 in0.0 mm 0.00 in0.0 mm 0.20 in5.1 mm
05:32 AM 65.3°F18.5°C 64.7°F18.2°C 98% 1.9 mph S3.1 kmh S 4.0 mph6.4 kmh 29.79 in1008.8 mb 0.00 in0.0 mm 0.00 in0.0 mm 0.20 in5.1 mm
05:27 AM 65.3°F18.5°C 64.7°F18.2°C 98% 1.0 mph SE1.6 kmh SE 3.0 mph4.8 kmh 29.79 in1008.8 mb 0.00 in0.0 mm 0.00 in0.0 mm 0.20 in5.1 mm
05:22 AM 65.3°F18.5°C 64.7°F18.2°C 98% 1.3 mph SW2.1 kmh SW 3.0 mph4.8 kmh 29.79 in1008.8 mb 0.00 in0.0 mm 0.00 in0.0 mm 0.20 in5.1 mm
05:17 AM 65.2°F18.4°C 64.6°F18.1°C 98% 1.2 mph SW1.9 kmh SW 5.0 mph8.0 kmh 29.79 in1008.8 mb 0.00 in0.0 mm 0.00 in0.0 mm 0.20 in5.1 mm
05:12 AM 65.2°F18.4°C 64.6°F18.1°C 98% 1.0 mph SW1.6 kmh SW 7.0 mph11.3 kmh 29.79 in1008.8 mb 0.02 in0.5 mm 0.00 in0.0 mm 0.20 in5.1 mm
05:07 AM 65.2°F18.4°C 64.6°F18.1°C 98% 1.3 mph SSE2.1 kmh SSE 8.0 mph12.9 kmh 29.78 in1008.5 mb 0.02 in0.5 mm 0.00 in0.0 mm 0.20 in5.1 mm
05:02 AM 65.2°F18.4°C 64.6°F18.1°C 98% 1.6 mph S2.6 kmh S 9.0 mph14.5 kmh 29.78 in1008.5 mb 0.02 in0.5 mm 0.00 in0.0 mm 0.20 in5.1 mm
04:57 AM 65.1°F18.4°C 64.5°F18.1°C 98% 1.9 mph S3.1 kmh S 9.0 mph14.5 kmh 29.78 in1008.5 mb 0.02 in0.5 mm 0.00 in0.0 mm 0.20 in5.1 mm
04:52 AM 65.1°F18.4°C 64.5°F18.1°C 98% 4.0 mph SSE6.4 kmh SSE 9.0 mph14.5 kmh 29.76 in1007.8 mb 0.02 in0.5 mm 0.00 in0.0 mm 0.20 in5.1 mm
04:47 AM 65.1°F18.4°C 64.5°F18.1°C 98% 2.0 mph SSE3.2 kmh SSE 9.0 mph14.5 kmh 29.77 in1008.1 mb 0.04 in1.0 mm 0.00 in0.0 mm 0.20 in5.1 mm
04:42 AM 65.1°F18.4°C 64.5°F18.1°C 98% 1.3 mph SSE2.1 kmh SSE 5.0 mph8.0 kmh 29.79 in1008.8 mb 0.05 in1.3 mm 0.00 in0.0 mm 0.20 in5.1 mm
04:37 AM 65.1°F18.4°C 64.5°F18.1°C 98% 1.8 mph SE2.9 kmh SE 5.0 mph8.0 kmh 29.80 in1009.1 mb 0.06 in1.5 mm 0.00 in0.0 mm 0.20 in5.1 mm
04:32 AM 65.1°F18.4°C 64.5°F18.1°C 98% 1.8 mph SSE2.9 kmh SSE 5.0 mph8.0 kmh 29.80 in1009.1 mb 0.06 in1.5 mm 0.00 in0.0 mm 0.20 in5.1 mm
04:27 AM 65.0°F18.3°C 64.4°F18.0°C 98% 1.1 mph S1.8 kmh S 5.0 mph8.0 kmh 29.80 in1009.1 mb 0.07 in1.8 mm 0.00 in0.0 mm 0.20 in5.1 mm
04:22 AM 65.1°F18.4°C 64.5°F18.1°C 98% 1.3 mph S2.1 kmh S 5.0 mph8.0 kmh 29.81 in1009.5 mb 0.07 in1.8 mm 0.00 in0.0 mm 0.20 in5.1 mm
04:17 AM 65.1°F18.4°C 64.5°F18.1°C 98% 1.4 mph SSE2.3 kmh SSE 5.0 mph8.0 kmh 29.81 in1009.5 mb 0.07 in1.8 mm 0.24 in6.1 mm 0.20 in5.1 mm
04:12 AM 65.1°F18.4°C 64.5°F18.1°C 98% 1.3 mph SSW2.1 kmh SSW 5.0 mph8.0 kmh 29.82 in1009.8 mb 0.05 in1.3 mm 0.00 in0.0 mm 0.18 in4.6 mm
04:07 AM 65.1°F18.4°C 64.5°F18.1°C 98% 2.0 mph SSW3.2 kmh SSW 5.0 mph8.0 kmh 29.82 in1009.8 mb 0.05 in1.3 mm 0.00 in0.0 mm 0.18 in4.6 mm
04:02 AM 65.1°F18.4°C 64.5°F18.1°C 98% 2.1 mph S3.4 kmh S 5.0 mph8.0 kmh 29.82 in1009.8 mb 0.05 in1.3 mm 0.00 in0.0 mm 0.18 in4.6 mm
03:57 AM 65.1°F18.4°C 64.5°F18.1°C 98% 1.1 mph S1.8 kmh S 3.0 mph4.8 kmh 29.83 in1010.2 mb 0.05 in1.3 mm 0.00 in0.0 mm 0.18 in4.6 mm
03:52 AM 65.1°F18.4°C 64.5°F18.1°C 98% 1.8 mph SW2.9 kmh SW 3.0 mph4.8 kmh 29.83 in1010.2 mb 0.05 in1.3 mm 0.24 in6.1 mm 0.18 in4.6 mm
03:47 AM 65.2°F18.4°C 64.6°F18.1°C 98% Calm Calm 5.0 mph8.0 kmh 29.83 in1010.2 mb 0.03 in0.8 mm 0.12 in3.0 mm 0.16 in4.1 mm
03:42 AM 65.2°F18.4°C 64.6°F18.1°C 98% 1.5 mph SE2.4 kmh SE 5.0 mph8.0 kmh 29.84 in1010.5 mb 0.02 in0.5 mm 0.12 in3.0 mm 0.15 in3.8 mm
03:37 AM 65.2°F18.4°C 64.6°F18.1°C 98% 1.0 mph SE1.6 kmh SE 5.0 mph8.0 kmh 29.84 in1010.5 mb 0.01 in0.3 mm 0.00 in0.0 mm 0.14 in3.6 mm
03:32 AM 65.2°F18.4°C 64.6°F18.1°C 98% 2.3 mph SE3.7 kmh SE 5.0 mph8.0 kmh 29.84 in1010.5 mb 0.02 in0.5 mm 0.12 in3.0 mm 0.14 in3.6 mm
03:27 AM 65.2°F18.4°C 64.6°F18.1°C 98% 1.0 mph SE1.6 kmh SE 2.0 mph3.2 kmh 29.85 in1010.8 mb 0.01 in0.3 mm 0.00 in0.0 mm 0.13 in3.3 mm
03:22 AM 65.2°F18.4°C 64.6°F18.1°C 98% Calm Calm 2.0 mph3.2 kmh 29.85 in1010.8 mb 0.02 in0.5 mm 0.00 in0.0 mm 0.13 in3.3 mm
03:17 AM 65.2°F18.4°C 64.6°F18.1°C 98% 1.3 mph SE2.1 kmh SE 2.0 mph3.2 kmh 29.85 in1010.8 mb 0.04 in1.0 mm 0.00 in0.0 mm 0.13 in3.3 mm
03:12 AM 65.2°F18.4°C 64.6°F18.1°C 98% 1.0 mph SE1.6 kmh SE 2.0 mph3.2 kmh 29.84 in1010.5 mb 0.05 in1.3 mm 0.00 in0.0 mm 0.13 in3.3 mm
03:07 AM 65.1°F18.4°C 64.5°F18.1°C 98% 1.0 mph SE1.6 kmh SE 3.0 mph4.8 kmh 29.85 in1010.8 mb 0.05 in1.3 mm 0.00 in0.0 mm 0.13 in3.3 mm
03:02 AM 65.2°F18.4°C 64.6°F18.1°C 98% Calm Calm 3.0 mph4.8 kmh 29.85 in1010.8 mb 0.05 in1.3 mm 0.00 in0.0 mm 0.13 in3.3 mm
02:57 AM 65.1°F18.4°C 64.5°F18.1°C 98% Calm Calm 3.0 mph4.8 kmh 29.86 in1011.2 mb 0.07 in1.8 mm 0.00 in0.0 mm 0.13 in3.3 mm
02:52 AM 65.1°F18.4°C 64.5°F18.1°C 98% 1.5 mph SE2.4 kmh SE 3.0 mph4.8 kmh 29.86 in1011.2 mb 0.08 in2.0 mm 0.00 in0.0 mm 0.13 in3.3 mm
02:47 AM 65.1°F18.4°C 64.5°F18.1°C 98% 1.6 mph SE2.6 kmh SE 3.0 mph4.8 kmh 29.86 in1011.2 mb 0.10 in2.5 mm 0.00 in0.0 mm 0.13 in3.3 mm
02:42 AM 65.2°F18.4°C 64.6°F18.1°C 98% 1.0 mph SE1.6 kmh SE 2.0 mph3.2 kmh 29.87 in1011.5 mb 0.10 in2.5 mm 0.00 in0.0 mm 0.13 in3.3 mm
02:37 AM 65.2°F18.4°C 64.6°F18.1°C 98% 1.4 mph S2.3 kmh S 2.0 mph3.2 kmh 29.87 in1011.5 mb 0.11 in2.8 mm 0.12 in3.0 mm 0.13 in3.3 mm
02:32 AM 65.2°F18.4°C 64.6°F18.1°C 98% 1.3 mph SE2.1 kmh SE 2.0 mph3.2 kmh 29.87 in1011.5 mb 0.10 in2.5 mm 0.00 in0.0 mm 0.12 in3.0 mm
02:27 AM 65.2°F18.4°C 64.6°F18.1°C 98% 1.0 mph SE1.6 kmh SE 2.0 mph3.2 kmh 29.88 in1011.9 mb 0.10 in2.5 mm 0.12 in3.0 mm 0.12 in3.0 mm
02:22 AM 65.2°F18.4°C 64.6°F18.1°C 98% 1.1 mph ESE1.8 kmh ESE 2.0 mph3.2 kmh 29.88 in1011.9 mb 0.09 in2.3 mm 0.24 in6.1 mm 0.11 in2.8 mm
02:17 AM 65.2°F18.4°C 64.6°F18.1°C 98% Calm Calm 3.0 mph4.8 kmh 29.89 in1012.2 mb 0.07 in1.8 mm 0.12 in3.0 mm 0.09 in2.3 mm
02:12 AM 65.2°F18.4°C 64.6°F18.1°C 98% 1.2 mph SE1.9 kmh SE 3.0 mph4.8 kmh 29.88 in1011.9 mb 0.06 in1.5 mm 0.00 in0.0 mm 0.08 in2.0 mm
02:07 AM 65.2°F18.4°C 64.6°F18.1°C 98% 1.0 mph SSE1.6 kmh SSE 4.0 mph6.4 kmh 29.89 in1012.2 mb 0.07 in1.8 mm 0.00 in0.0 mm 0.08 in2.0 mm
02:02 AM 65.2°F18.4°C 64.6°F18.1°C 98% 1.0 mph SE1.6 kmh SE 4.0 mph6.4 kmh 29.89 in1012.2 mb 0.07 in1.8 mm 0.02 in0.5 mm 0.08 in2.0 mm
01:57 AM 65.3°F18.5°C 64.7°F18.2°C 98% Calm Calm 4.0 mph6.4 kmh 29.90 in1012.5 mb 0.05 in1.3 mm 0.12 in3.0 mm 0.06 in1.5 mm
01:52 AM 65.3°F18.5°C 64.7°F18.2°C 98% 1.6 mph ESE2.6 kmh ESE 3.0 mph4.8 kmh 29.89 in1012.2 mb 0.04 in1.0 mm 0.24 in6.1 mm 0.05 in1.3 mm
01:47 AM 65.3°F18.5°C 64.7°F18.2°C 98% 1.0 mph SE1.6 kmh SE 3.0 mph4.8 kmh 29.89 in1012.2 mb 0.02 in0.5 mm 0.00 in0.0 mm 0.03 in0.8 mm
01:42 AM 65.4°F18.6°C 64.8°F18.2°C 98% 2.2 mph SE3.5 kmh SE 4.0 mph6.4 kmh 29.89 in1012.2 mb 0.02 in0.5 mm 0.00 in0.0 mm 0.03 in0.8 mm
01:37 AM 65.4°F18.6°C 64.8°F18.2°C 98% 1.7 mph SE2.7 kmh SE 4.0 mph6.4 kmh 29.90 in1012.5 mb 0.02 in0.5 mm 0.00 in0.0 mm 0.02 in0.5 mm
01:32 AM 65.4°F18.6°C 64.8°F18.2°C 98% 1.0 mph ESE1.6 kmh ESE 4.0 mph6.4 kmh 29.90 in1012.5 mb 0.02 in0.5 mm 0.00 in0.0 mm 0.02 in0.5 mm
01:27 AM 65.4°F18.6°C 64.8°F18.2°C 98% 1.1 mph ESE1.8 kmh ESE 5.0 mph8.0 kmh 29.90 in1012.5 mb 0.02 in0.5 mm 0.00 in0.0 mm 0.02 in0.5 mm
01:22 AM 65.4°F18.6°C 64.8°F18.2°C 98% 2.2 mph SE3.5 kmh SE 5.0 mph8.0 kmh 29.90 in1012.5 mb 0.02 in0.5 mm 0.00 in0.0 mm 0.02 in0.5 mm
01:17 AM 65.5°F18.6°C 64.9°F18.3°C 98% Calm Calm 5.0 mph8.0 kmh 29.90 in1012.5 mb 0.02 in0.5 mm 0.00 in0.0 mm 0.02 in0.5 mm
01:12 AM 65.5°F18.6°C 64.9°F18.3°C 98% 1.4 mph SE2.3 kmh SE 5.0 mph8.0 kmh 29.90 in1012.5 mb 0.02 in0.5 mm 0.12 in3.0 mm 0.02 in0.5 mm
01:07 AM 65.5°F18.6°C 64.9°F18.3°C 98% 1.4 mph ESE2.3 kmh ESE 5.0 mph8.0 kmh 29.90 in1012.5 mb 0.01 in0.3 mm 0.00 in0.0 mm 0.01 in0.3 mm
01:02 AM 65.5°F18.6°C 64.9°F18.3°C 98% 2.6 mph SE4.2 kmh SE 5.0 mph8.0 kmh 29.90 in1012.5 mb 0.01 in0.3 mm 0.00 in0.0 mm 0.01 in0.3 mm
12:57 AM 65.5°F18.6°C 64.9°F18.3°C 98% 1.6 mph SSE2.6 kmh SSE 4.0 mph6.4 kmh 29.91 in1012.9 mb 0.01 in0.3 mm 0.00 in0.0 mm 0.01 in0.3 mm
12:52 AM 65.5°F18.6°C 64.9°F18.3°C 98% 1.1 mph SSE1.8 kmh SSE 4.0 mph6.4 kmh 29.91 in1012.9 mb 0.01 in0.3 mm 0.00 in0.0 mm 0.01 in0.3 mm
12:47 AM 65.5°F18.6°C 64.9°F18.3°C 98% 1.4 mph SW2.3 kmh SW 4.0 mph6.4 kmh 29.91 in1012.9 mb 0.01 in0.3 mm 0.00 in0.0 mm 0.01 in0.3 mm
12:42 AM 65.6°F18.7°C 65.0°F18.3°C 98% 1.0 mph WSW1.6 kmh WSW 4.0 mph6.4 kmh 29.91 in1012.9 mb 0.01 in0.3 mm 0.12 in3.0 mm 0.01 in0.3 mm
12:37 AM 65.6°F18.7°C 65.0°F18.3°C 98% 2.3 mph S3.7 kmh S 4.0 mph6.4 kmh 29.91 in1012.9 mb 0.00 in0.0 mm 0.00 in0.0 mm 0.00 in0.0 mm
12:32 AM 65.6°F18.7°C 65.0°F18.3°C 98% 1.0 mph SE1.6 kmh SE 4.0 mph6.4 kmh 29.91 in1012.9 mb 0.00 in0.0 mm 0.00 in0.0 mm 0.00 in0.0 mm
12:27 AM 65.7°F18.7°C 65.1°F18.4°C 98% 1.0 mph SW1.6 kmh SW 4.0 mph6.4 kmh 29.91 in1012.9 mb 0.00 in0.0 mm 0.00 in0.0 mm 0.00 in0.0 mm
12:23 AM 65.6°F18.7°C 65.0°F18.3°C 98% 1.7 mph SSW2.7 kmh SSW 5.0 mph8.0 kmh 29.91 in1012.9 mb 0.00 in0.0 mm 0.00 in0.0 mm 0.00 in0.0 mm
12:18 AM 65.6°F18.7°C 65.0°F18.3°C 98% 1.6 mph SSW2.6 kmh SSW 6.0 mph9.7 kmh 29.91 in1012.9 mb 0.00 in0.0 mm 0.00 in0.0 mm 0.00 in0.0 mm
12:13 AM 65.6°F18.7°C 65.0°F18.3°C 98% 1.3 mph SSE2.1 kmh SSE 7.0 mph11.3 kmh 29.91 in1012.9 mb 0.00 in0.0 mm 0.00 in0.0 mm 0.00 in0.0 mm
12:08 AM 65.6°F18.7°C 65.0°F18.3°C 98% 2.6 mph S4.2 kmh S 7.0 mph11.3 kmh 29.91 in1012.9 mb 0.00 in0.0 mm 0.00 in0.0 mm 0.00 in0.0 mm
12:03 AM 65.6°F18.7°C 65.0°F18.3°C 98% 2.1 mph SSE3.4 kmh SSE 7.0 mph11.3 kmh 29.91 in1012.9 mb 0.00 in0.0 mm 0.00 in0.0 mm 1.03 in26.2 mm